Time;durP1;ratioP1;P1;durP2;ratioP2;P2;SDS_P1;SDS_P2;PMS_P1;PMS_P2;Temp;Humidity;BMP_temperature;BMP_pressure;BME280_temperature;BME280_humidity;BME280_pressure;Samples;Min_cycle;Max_cycle;Signal;HPM_P1;HPM_P2
2022/05/04 06:59:30;;;;;;;3.70;2.36;;;;;;;;;;12494601;22;15311344;-85
2022/05/04 07:04:43;;;;;;;3.33;2.00;;;;;;;;;;13081829;22;20007;-85
2022/05/04 07:09:44;;;;;;;6.47;2.70;;;;;;;;;;13083318;22;20348;-83
2022/05/04 07:14:45;;;;;;;6.35;2.78;;;;;;;;;;13071695;22;20023;-82
2022/05/04 07:19:46;;;;;;;5.50;2.70;;;;;;;;;;13070293;22;20053;-82
2022/05/04 07:24:47;;;;;;;5.97;2.75;;;;;;;;;;13092234;22;20007;-81
2022/05/04 07:29:48;;;;;;;4.80;2.95;;;;;;;;;;13063772;22;20067;-80
2022/05/04 07:34:50;;;;;;;8.13;3.42;;;;;;;;;;13061333;22;19995;-81
2022/05/04 07:45:15;;;;;;;5.53;3.05;;;;;;;;;;13070205;22;20035;-85
2022/05/04 07:50:17;;;;;;;11.32;6.65;;;;;;;;;;13069572;22;20003;-84
2022/05/04 07:55:18;;;;;;;6.32;3.50;;;;;;;;;;13070167;22;20025;-85
2022/05/04 08:05:44;;;;;;;8.80;4.60;;;;;;;;;;13120534;22;20157;-80
2022/05/04 08:10:49;;;;;;;7.18;3.80;;;;;;;;;;13117244;22;20334;-82
2022/05/04 08:16:11;;;;;;;10.98;6.03;;;;;;;;;;13118107;22;20326;-81
2022/05/04 08:21:39;;;;;;;9.30;6.17;;;;;;;;;;13012325;22;20011;-81
2022/05/04 08:26:51;;;;;;;9.10;4.97;;;;;;;;;;13113324;22;20011;-81
2022/05/04 08:32:11;;;;;;;11.07;7.63;;;;;;;;;;13146483;22;20010;-81
2022/05/04 08:37:18;;;;;;;8.10;5.60;;;;;;;;;;13116956;22;20003;-84
2022/05/04 08:42:21;;;;;;;10.90;6.03;;;;;;;;;;13116023;22;20046;-85
2022/05/04 08:47:23;;;;;;;12.63;6.38;;;;;;;;;;13114901;22;20002;-85
2022/05/04 08:52:31;;;;;;;8.25;4.30;;;;;;;;;;13110458;22;20453;-84
2022/05/04 08:57:57;;;;;;;11.90;8.35;;;;;;;;;;13121292;22;20032;-85
2022/05/04 09:03:07;;;;;;;9.98;6.93;;;;;;;;;;13128549;22;20034;-81
2022/05/04 09:08:27;;;;;;;9.40;6.20;;;;;;;;;;13156292;22;20047;-83
2022/05/04 09:13:49;;;;;;;12.13;7.05;;;;;;;;;;13162441;22;19987;-82
2022/05/04 09:18:50;;;;;;;11.30;5.63;;;;;;;;;;13133949;22;20007;-82
2022/05/04 09:24:00;;;;;;;7.18;4.60;;;;;;;;;;13126625;22;19999;-84
2022/05/04 09:29:04;;;;;;;8.23;5.30;;;;;;;;;;13145651;22;20007;-85
2022/05/04 09:34:08;;;;;;;10.40;7.10;;;;;;;;;;13142429;22;19998;-84
2022/05/04 09:50:03;;;;;;;9.98;6.93;;;;;;;;;;13153554;22;20011;-80
2022/05/04 09:55:13;;;;;;;7.88;4.18;;;;;;;;;;13129407;22;19999;-80
2022/05/04 10:00:17;;;;;;;11.85;7.20;;;;;;;;;;13123604;22;20011;-82
2022/05/04 10:05:19;;;;;;;9.93;6.47;;;;;;;;;;13120765;22;20010;-80
2022/05/04 10:10:21;;;;;;;12.15;8.77;;;;;;;;;;13122734;22;20011;-83
2022/05/04 10:15:22;;;;;;;9.75;6.35;;;;;;;;;;13143018;22;19996;-83
2022/05/04 10:20:28;;;;;;;13.88;8.50;;;;;;;;;;13110564;22;20014;-84
2022/05/04 10:25:48;;;;;;;12.30;8.90;;;;;;;;;;13110469;22;20062;-84
2022/05/04 10:30:49;;;;;;;;;;;;;;;;;;13110336;22;20006;-83
2022/05/04 10:35:53;;;;;;;9.90;7.00;;;;;;;;;;13111543;22;19934;-85
2022/05/04 10:41:02;;;;;;;10.63;8.57;;;;;;;;;;13119821;22;20007;-82
2022/05/04 10:46:07;;;;;;;11.25;7.07;;;;;;;;;;13128724;22;20009;-83
2022/05/04 10:51:17;;;;;;;7.63;5.35;;;;;;;;;;13132100;22;19999;-81
2022/05/04 10:56:20;;;;;;;9.68;6.32;;;;;;;;;;13130814;22;20009;-82
2022/05/04 11:01:25;;;;;;;12.55;8.57;;;;;;;;;;13120766;22;20011;-81
2022/05/04 11:06:30;;;;;;;14.30;11.88;;;;;;;;;;13129767;22;20067;-84
2022/05/04 11:11:32;;;;;;;16.13;12.05;;;;;;;;;;13154537;22;20009;-86
2022/05/04 11:16:34;;;;;;;13.20;9.13;;;;;;;;;;13116425;22;20003;-85
2022/05/04 11:21:39;;;;;;;16.00;9.90;;;;;;;;;;13107228;22;20003;-82
2022/05/04 11:26:41;;;;;;;13.98;8.73;;;;;;;;;;13120473;22;20038;-81
2022/05/04 11:31:47;;;;;;;10.70;8.20;;;;;;;;;;13116040;22;20058;-81
2022/05/04 11:36:49;;;;;;;14.10;9.23;;;;;;;;;;13114179;22;20033;-85
2022/05/04 11:41:50;;;;;;;9.27;6.75;;;;;;;;;;13108321;22;20041;-86
2022/05/04 11:46:53;;;;;;;7.35;5.80;;;;;;;;;;13132924;22;20030;-86
2022/05/04 11:51:55;;;;;;;11.82;8.35;;;;;;;;;;13133127;22;20002;-85
2022/05/04 11:56:56;;;;;;;8.60;4.57;;;;;;;;;;13107388;22;19998;-84
2022/05/04 12:01:58;;;;;;;10.88;7.95;;;;;;;;;;13111539;22;20010;-82
2022/05/04 12:07:00;;;;;;;7.68;6.00;;;;;;;;;;13114255;22;20018;-85
2022/05/04 12:12:01;;;;;;;7.93;6.28;;;;;;;;;;13136503;22;20020;-85
2022/05/04 12:17:03;;;;;;;9.57;7.05;;;;;;;;;;13144459;22;19998;-86
2022/05/04 12:22:07;;;;;;;11.38;8.30;;;;;;;;;;13117980;22;20014;-84
2022/05/04 12:27:12;;;;;;;15.85;8.80;;;;;;;;;;13119140;22;20007;-85
2022/05/04 12:37:33;;;;;;;10.43;7.07;;;;;;;;;;13160155;22;20043;-84
2022/05/04 12:42:34;;;;;;;8.02;5.82;;;;;;;;;;13127906;22;20089;-84
2022/05/04 12:47:35;;;;;;;9.75;6.55;;;;;;;;;;13133665;22;19999;-82
2022/05/04 12:52:40;;;;;;;6.85;5.47;;;;;;;;;;13131706;22;20002;-82
2022/05/04 12:57:42;;;;;;;8.13;4.13;;;;;;;;;;13138166;22;20010;-80
2022/05/04 13:02:43;;;;;;;6.70;4.22;;;;;;;;;;13135547;22;20028;-84
2022/05/04 13:07:45;;;;;;;4.75;3.05;;;;;;;;;;13115667;22;20064;-82
2022/05/04 13:12:46;;;;;;;4.28;3.00;;;;;;;;;;13147110;22;20002;-81
2022/05/04 13:17:47;;;;;;;10.13;4.85;;;;;;;;;;13162082;22;20009;-80
2022/05/04 13:22:48;;;;;;;8.15;4.07;;;;;;;;;;13141791;22;20036;-83
2022/05/04 13:27:49;;;;;;;7.70;3.95;;;;;;;;;;13147118;22;19998;-84
2022/05/04 13:32:50;;;;;;;6.65;3.33;;;;;;;;;;13144301;22;20026;-84
2022/05/04 13:37:51;;;;;;;7.72;3.55;;;;;;;;;;13127329;22;20006;-85
2022/05/04 13:42:53;;;;;;;5.15;3.20;;;;;;;;;;13118909;22;19999;-84
2022/05/04 13:47:54;;;;;;;7.60;3.25;;;;;;;;;;13114665;22;20344;-85
2022/05/04 13:53:14;;;;;;;6.15;3.15;;;;;;;;;;13116834;22;20003;-87
2022/05/04 13:58:15;;;;;;;6.93;3.33;;;;;;;;;;13126179;22;19999;-82
2022/05/04 14:03:17;;;;;;;8.35;4.32;;;;;;;;;;13126154;22;20011;-87
2022/05/04 14:08:18;;;;;;;5.45;2.88;;;;;;;;;;13132603;22;20014;-85
2022/05/04 14:13:26;;;;;;;6.55;2.83;;;;;;;;;;13144222;22;20021;-81
2022/05/04 14:18:31;;;;;;;10.10;3.95;;;;;;;;;;13134585;22;20017;-81
2022/05/04 14:23:32;;;;;;;8.98;3.53;;;;;;;;;;13129686;22;20407;-85
2022/05/04 14:28:33;;;;;;;6.47;2.70;;;;;;;;;;13144021;22;20006;-85
2022/05/04 14:33:34;;;;;;;8.00;5.20;;;;;;;;;;13119857;22;20404;-85
2022/05/04 14:38:35;;;;;;;4.57;2.25;;;;;;;;;;13140638;22;20003;-85
2022/05/04 14:43:36;;;;;;;5.88;3.05;;;;;;;;;;13117687;22;20498;-83
2022/05/04 14:48:38;;;;;;;7.60;3.35;;;;;;;;;;13154166;22;19999;-83
2022/05/04 14:53:39;;;;;;;4.45;2.80;;;;;;;;;;13135075;22;19998;-85
2022/05/04 14:58:40;;;;;;;4.00;2.63;;;;;;;;;;13151522;22;20021;-79
2022/05/04 15:09:03;;;;;;;5.47;2.60;;;;;;;;;;13076074;22;20015;-80
2022/05/04 15:14:06;;;;;;;5.75;3.30;;;;;;;;;;13074424;22;20075;-80
2022/05/04 15:19:07;;;;;;;7.38;3.97;;;;;;;;;;13019439;22;20015;-79
2022/05/04 15:24:08;;;;;;;18.58;13.60;;;;;;;;;;13043858;22;20057;-78
2022/05/04 15:29:09;;;;;;;6.60;3.53;;;;;;;;;;13070990;22;20010;-79
2022/05/04 15:34:10;;;;;;;4.85;3.03;;;;;;;;;;13047255;22;20339;-82
2022/05/04 15:39:11;;;;;;;4.30;2.83;;;;;;;;;;13071698;22;20003;-78
2022/05/04 15:44:12;;;;;;;3.90;2.65;;;;;;;;;;13071138;22;19995;-79
2022/05/04 15:49:13;;;;;;;5.22;2.95;;;;;;;;;;13074249;22;19996;-79
2022/05/04 15:54:14;;;;;;;6.00;3.10;;;;;;;;;;13046451;22;20003;-78
2022/05/04 15:59:15;;;;;;;6.70;3.17;;;;;;;;;;13032308;22;20074;-79
2022/05/04 16:04:16;;;;;;;8.35;2.75;;;;;;;;;;13032898;22;20304;-78
2022/05/04 16:09:18;;;;;;;6.10;3.00;;;;;;;;;;13060072;22;20048;-77
2022/05/04 16:14:21;;;;;;;4.80;2.70;;;;;;;;;;13039134;22;20086;-78
2022/05/04 16:24:42;;;;;;;7.07;3.30;;;;;;;;;;13065478;22;20074;-79
2022/05/04 16:29:43;;;;;;;6.35;3.58;;;;;;;;;;13034572;22;20035;-79
2022/05/04 16:34:44;;;;;;;6.28;4.05;;;;;;;;;;13034669;22;20009;-79
2022/05/04 16:39:45;;;;;;;6.13;3.75;;;;;;;;;;13034619;22;20003;-79
2022/05/04 16:44:45;;;;;;;6.72;3.42;;;;;;;;;;13034694;22;20050;-79
2022/05/04 16:49:46;;;;;;;6.35;3.38;;;;;;;;;;13035189;22;20003;-80
2022/05/04 16:54:47;;;;;;;6.88;4.60;;;;;;;;;;13034513;22;20003;-81
2022/05/04 16:59:48;;;;;;;4.95;3.00;;;;;;;;;;13035027;22;20017;-80
2022/05/04 17:04:49;;;;;;;5.72;3.13;;;;;;;;;;13038409;22;20363;-79
2022/05/04 17:09:50;;;;;;;5.38;2.85;;;;;;;;;;13041660;22;20010;-79
2022/05/04 17:14:52;;;;;;;5.53;2.95;;;;;;;;;;13038815;22;20010;-80
2022/05/04 17:19:53;;;;;;;4.93;3.05;;;;;;;;;;13063641;22;20003;-80
2022/05/04 17:24:54;;;;;;;7.47;3.28;;;;;;;;;;13037607;22;20007;-80
2022/05/04 17:29:55;;;;;;;5.20;2.47;;;;;;;;;;13039152;22;20113;-80
2022/05/04 17:40:15;;;;;;;9.20;3.40;;;;;;;;;;13066533;22;20007;-80
2022/05/04 17:45:16;;;;;;;7.85;2.97;;;;;;;;;;13035421;22;20439;-81
2022/05/04 17:50:17;;;;;;;4.10;2.10;;;;;;;;;;13039288;22;20007;-80
2022/05/04 17:55:21;;;;;;;6.00;3.00;;;;;;;;;;13066667;22;20084;-79
2022/05/04 18:00:22;;;;;;;4.88;2.08;;;;;;;;;;13058739;22;20012;-79
2022/05/04 18:05:23;;;;;;;5.28;3.03;;;;;;;;;;13032894;22;20000;-80
2022/05/04 18:10:24;;;;;;;3.63;2.00;;;;;;;;;;13065854;22;20078;-80
2022/05/04 18:15:26;;;;;;;5.28;2.72;;;;;;;;;;13033434;22;20343;-79
2022/05/04 18:20:27;;;;;;;6.88;2.33;;;;;;;;;;13035094;22;20000;-81
2022/05/04 18:25:28;;;;;;;4.68;2.40;;;;;;;;;;13035191;22;20424;-79
2022/05/04 18:30:32;;;;;;;4.35;2.30;;;;;;;;;;13039094;22;20003;-78
2022/05/04 18:35:35;;;;;;;3.03;2.10;;;;;;;;;;13075581;22;19999;-77
2022/05/04 18:40:40;;;;;;;5.95;2.85;;;;;;;;;;13073815;22;20014;-79
2022/05/04 18:45:43;;;;;;;3.60;2.15;;;;;;;;;;13074496;22;19999;-79
2022/05/04 18:50:44;;;;;;;4.40;2.33;;;;;;;;;;13073907;22;19999;-79
2022/05/04 18:55:45;;;;;;;2.65;1.60;;;;;;;;;;13074149;22;20022;-79
2022/05/04 19:00:51;;;;;;;2.10;1.58;;;;;;;;;;13103124;22;20027;-78
2022/05/04 19:05:58;;;;;;;3.20;1.80;;;;;;;;;;13105149;22;20008;-79
2022/05/04 19:10:59;;;;;;;3.28;2.10;;;;;;;;;;13082952;22;20493;-79
2022/05/04 19:16:00;;;;;;;1.98;1.50;;;;;;;;;;13060655;22;20427;-81
2022/05/04 19:21:01;;;;;;;4.07;2.03;;;;;;;;;;13077540;22;20004;-81
2022/05/04 19:26:02;;;;;;;2.33;1.73;;;;;;;;;;13045762;22;20375;-81
